sensor_id;sensor_type;location;lat;lon;timestamp;P1;durP1;ratioP1;P2;durP2;ratioP2
65665;SDS011;52365;47.464;18.976;2023-07-31T00:00:00;3.05;;;1.87;;
65665;SDS011;52365;47.464;18.976;2023-07-31T00:00:21;2.55;;;1.90;;
65665;SDS011;52365;47.464;18.976;2023-07-31T00:00:42;2.70;;;2.10;;
65665;SDS011;52365;47.464;18.976;2023-07-31T00:01:03;3.00;;;1.95;;
65665;SDS011;52365;47.464;18.976;2023-07-31T00:01:24;2.60;;;1.90;;
65665;SDS011;52365;47.464;18.976;2023-07-31T00:01:45;2.85;;;2.10;;
65665;SDS011;52365;47.464;18.976;2023-07-31T00:02:06;3.17;;;2.10;;
65665;SDS011;52365;47.464;18.976;2023-07-31T00:02:22;3.28;;;1.95;;
65665;SDS011;52365;47.464;18.976;2023-07-31T00:02:38;2.85;;;2.08;;
65665;SDS011;52365;47.464;18.976;2023-07-31T00:02:59;3.30;;;2.20;;
65665;SDS011;52365;47.464;18.976;2023-07-31T00:03:20;3.60;;;2.00;;
65665;SDS011;52365;47.464;18.976;2023-07-31T00:03:41;3.33;;;1.98;;
65665;SDS011;52365;47.464;18.976;2023-07-31T00:04:02;2.62;;;2.00;;
65665;SDS011;52365;47.464;18.976;2023-07-31T00:04:23;2.55;;;1.92;;
65665;SDS011;52365;47.464;18.976;2023-07-31T00:04:44;2.90;;;1.90;;
65665;SDS011;52365;47.464;18.976;2023-07-31T00:05:05;2.70;;;1.90;;
65665;SDS011;52365;47.464;18.976;2023-07-31T00:05:26;2.62;;;1.85;;
65665;SDS011;52365;47.464;18.976;2023-07-31T00:05:42;2.60;;;2.03;;
65665;SDS011;52365;47.464;18.976;2023-07-31T00:06:03;2.83;;;1.90;;
65665;SDS011;52365;47.464;18.976;2023-07-31T00:06:24;4.18;;;2.05;;
65665;SDS011;52365;47.464;18.976;2023-07-31T00:06:45;3.95;;;2.22;;
65665;SDS011;52365;47.464;18.976;2023-07-31T00:07:06;3.37;;;2.10;;
65665;SDS011;52365;47.464;18.976;2023-07-31T00:07:22;3.20;;;2.10;;
65665;SDS011;52365;47.464;18.976;2023-07-31T00:07:43;2.70;;;2.00;;
65665;SDS011;52365;47.464;18.976;2023-07-31T00:08:04;3.15;;;2.08;;
65665;SDS011;52365;47.464;18.976;2023-07-31T00:08:25;3.17;;;1.92;;
65665;SDS011;52365;47.464;18.976;2023-07-31T00:08:46;2.55;;;1.90;;
65665;SDS011;52365;47.464;18.976;2023-07-31T00:09:07;2.28;;;1.87;;
65665;SDS011;52365;47.464;18.976;2023-07-31T00:09:28;3.08;;;2.10;;
65665;SDS011;52365;47.464;18.976;2023-07-31T00:09:44;3.05;;;2.10;;
65665;SDS011;52365;47.464;18.976;2023-07-31T00:10:05;2.50;;;1.83;;
65665;SDS011;52365;47.464;18.976;2023-07-31T00:10:26;2.90;;;2.00;;
65665;SDS011;52365;47.464;18.976;2023-07-31T00:10:50;3.53;;;2.00;;
65665;SDS011;52365;47.464;18.976;2023-07-31T00:11:13;4.35;;;2.20;;
65665;SDS011;52365;47.464;18.976;2023-07-31T00:11:34;2.80;;;2.15;;
65665;SDS011;52365;47.464;18.976;2023-07-31T00:11:55;3.05;;;1.92;;
65665;SDS011;52365;47.464;18.976;2023-07-31T00:12:16;2.75;;;1.80;;
65665;SDS011;52365;47.464;18.976;2023-07-31T00:12:38;2.22;;;1.80;;
65665;SDS011;52365;47.464;18.976;2023-07-31T00:13:00;2.55;;;1.80;;
65665;SDS011;52365;47.464;18.976;2023-07-31T00:13:21;2.83;;;2.00;;
65665;SDS011;52365;47.464;18.976;2023-07-31T00:13:42;2.50;;;1.80;;
65665;SDS011;52365;47.464;18.976;2023-07-31T00:14:03;3.50;;;1.90;;
65665;SDS011;52365;47.464;18.976;2023-07-31T00:14:24;3.47;;;1.90;;
65665;SDS011;52365;47.464;18.976;2023-07-31T00:14:40;2.37;;;1.75;;
65665;SDS011;52365;47.464;18.976;2023-07-31T00:15:01;2.70;;;1.90;;
65665;SDS011;52365;47.464;18.976;2023-07-31T00:15:23;2.87;;;1.98;;
65665;SDS011;52365;47.464;18.976;2023-07-31T00:15:44;2.55;;;1.95;;
65665;SDS011;52365;47.464;18.976;2023-07-31T00:16:05;2.75;;;1.87;;
65665;SDS011;52365;47.464;18.976;2023-07-31T00:16:26;3.25;;;1.90;;
65665;SDS011;52365;47.464;18.976;2023-07-31T00:16:47;2.37;;;1.85;;
65665;SDS011;52365;47.464;18.976;2023-07-31T00:17:08;2.75;;;1.85;;
65665;SDS011;52365;47.464;18.976;2023-07-31T00:17:29;2.60;;;1.95;;
65665;SDS011;52365;47.464;18.976;2023-07-31T00:17:45;2.35;;;1.70;;
65665;SDS011;52365;47.464;18.976;2023-07-31T00:18:07;2.53;;;1.80;;
65665;SDS011;52365;47.464;18.976;2023-07-31T00:18:28;2.53;;;1.90;;
65665;SDS011;52365;47.464;18.976;2023-07-31T00:18:49;3.00;;;2.03;;
65665;SDS011;52365;47.464;18.976;2023-07-31T00:19:10;2.87;;;1.77;;
65665;SDS011;52365;47.464;18.976;2023-07-31T00:19:31;2.80;;;1.80;;
65665;SDS011;52365;47.464;18.976;2023-07-31T00:19:47;2.50;;;1.70;;
65665;SDS011;52365;47.464;18.976;2023-07-31T00:20:11;2.58;;;1.73;;
65665;SDS011;52365;47.464;18.976;2023-07-31T00:20:32;2.40;;;1.80;;
65665;SDS011;52365;47.464;18.976;2023-07-31T00:20:53;2.10;;;1.58;;
65665;SDS011;52365;47.464;18.976;2023-07-31T00:21:14;2.30;;;1.62;;
65665;SDS011;52365;47.464;18.976;2023-07-31T00:21:35;2.55;;;1.77;;
65665;SDS011;52365;47.464;18.976;2023-07-31T00:21:56;2.83;;;2.03;;
65665;SDS011;52365;47.464;18.976;2023-07-31T00:22:17;3.58;;;1.85;;
65665;SDS011;52365;47.464;18.976;2023-07-31T00:22:38;3.47;;;1.87;;
65665;SDS011;52365;47.464;18.976;2023-07-31T00:22:59;3.00;;;1.87;;
65665;SDS011;52365;47.464;18.976;2023-07-31T00:23:15;2.10;;;1.65;;
65665;SDS011;52365;47.464;18.976;2023-07-31T00:23:36;2.70;;;1.80;;
65665;SDS011;52365;47.464;18.976;2023-07-31T00:23:57;2.92;;;1.80;;
65665;SDS011;52365;47.464;18.976;2023-07-31T00:24:18;2.70;;;2.00;;
65665;SDS011;52365;47.464;18.976;2023-07-31T00:24:39;2.97;;;1.85;;
65665;SDS011;52365;47.464;18.976;2023-07-31T00:24:59;2.70;;;1.70;;
65665;SDS011;52365;47.464;18.976;2023-07-31T00:25:20;2.67;;;1.75;;
65665;SDS011;52365;47.464;18.976;2023-07-31T00:25:42;2.90;;;1.90;;
65665;SDS011;52365;47.464;18.976;2023-07-31T00:26:03;2.55;;;1.75;;
65665;SDS011;52365;47.464;18.976;2023-07-31T00:26:24;2.25;;;1.60;;
65665;SDS011;52365;47.464;18.976;2023-07-31T00:26:45;2.60;;;1.80;;
65665;SDS011;52365;47.464;18.976;2023-07-31T00:27:06;2.35;;;1.80;;
65665;SDS011;52365;47.464;18.976;2023-07-31T00:27:27;2.60;;;2.00;;
65665;SDS011;52365;47.464;18.976;2023-07-31T00:27:48;2.30;;;1.80;;
65665;SDS011;52365;47.464;18.976;2023-07-31T00:28:09;2.75;;;1.70;;
65665;SDS011;52365;47.464;18.976;2023-07-31T00:28:30;3.45;;;1.90;;
65665;SDS011;52365;47.464;18.976;2023-07-31T00:28:51;3.87;;;1.87;;
65665;SDS011;52365;47.464;18.976;2023-07-31T00:29:12;3.22;;;1.87;;
65665;SDS011;52365;47.464;18.976;2023-07-31T00:29:33;2.90;;;2.00;;
65665;SDS011;52365;47.464;18.976;2023-07-31T00:29:54;2.50;;;1.98;;
65665;SDS011;52365;47.464;18.976;2023-07-31T00:30:15;2.70;;;2.10;;
65665;SDS011;52365;47.464;18.976;2023-07-31T00:30:37;3.35;;;1.87;;
65665;SDS011;52365;47.464;18.976;2023-07-31T00:30:58;2.85;;;1.70;;
65665;SDS011;52365;47.464;18.976;2023-07-31T00:31:19;2.58;;;1.60;;
65665;SDS011;52365;47.464;18.976;2023-07-31T00:31:40;2.83;;;1.77;;
65665;SDS011;52365;47.464;18.976;2023-07-31T00:32:01;2.53;;;1.83;;
65665;SDS011;52365;47.464;18.976;2023-07-31T00:32:22;2.37;;;1.70;;
65665;SDS011;52365;47.464;18.976;2023-07-31T00:32:43;2.37;;;1.73;;
65665;SDS011;52365;47.464;18.976;2023-07-31T00:33:04;2.45;;;1.80;;
65665;SDS011;52365;47.464;18.976;2023-07-31T00:33:20;2.75;;;1.80;;
65665;SDS011;52365;47.464;18.976;2023-07-31T00:33:41;3.03;;;1.73;;
65665;SDS011;52365;47.464;18.976;2023-07-31T00:34:02;3.65;;;1.92;;
65665;SDS011;52365;47.464;18.976;2023-07-31T00:34:23;2.85;;;1.90;;
65665;SDS011;52365;47.464;18.976;2023-07-31T00:34:44;1.90;;;1.50;;
65665;SDS011;52365;47.464;18.976;2023-07-31T00:35:05;2.25;;;1.75;;
65665;SDS011;52365;47.464;18.976;2023-07-31T00:35:26;2.50;;;2.00;;
65665;SDS011;52365;47.464;18.976;2023-07-31T00:35:48;2.10;;;1.70;;
65665;SDS011;52365;47.464;18.976;2023-07-31T00:36:09;3.03;;;1.50;;
65665;SDS011;52365;47.464;18.976;2023-07-31T00:36:30;3.12;;;1.70;;
65665;SDS011;52365;47.464;18.976;2023-07-31T00:36:51;2.95;;;1.85;;
65665;SDS011;52365;47.464;18.976;2023-07-31T00:37:12;2.95;;;1.85;;
65665;SDS011;52365;47.464;18.976;2023-07-31T00:37:33;2.45;;;1.80;;
65665;SDS011;52365;47.464;18.976;2023-07-31T00:37:49;2.83;;;2.03;;
65665;SDS011;52365;47.464;18.976;2023-07-31T00:38:10;2.80;;;1.80;;
65665;SDS011;52365;47.464;18.976;2023-07-31T00:38:31;1.90;;;1.55;;
65665;SDS011;52365;47.464;18.976;2023-07-31T00:38:52;2.62;;;1.73;;
65665;SDS011;52365;47.464;18.976;2023-07-31T00:39:13;2.67;;;1.75;;
65665;SDS011;52365;47.464;18.976;2023-07-31T00:39:34;3.10;;;1.70;;
65665;SDS011;52365;47.464;18.976;2023-07-31T00:39:56;3.95;;;1.60;;
65665;SDS011;52365;47.464;18.976;2023-07-31T00:40:17;3.90;;;1.65;;
65665;SDS011;52365;47.464;18.976;2023-07-31T00:40:36;2.20;;;1.58;;
65665;SDS011;52365;47.464;18.976;2023-07-31T00:40:57;2.15;;;1.77;;
65665;SDS011;52365;47.464;18.976;2023-07-31T00:41:18;2.72;;;1.80;;
65665;SDS011;52365;47.464;18.976;2023-07-31T00:41:39;2.70;;;1.80;;
65665;SDS011;52365;47.464;18.976;2023-07-31T00:42:00;2.50;;;1.80;;
65665;SDS011;52365;47.464;18.976;2023-07-31T00:42:21;2.45;;;1.60;;
65665;SDS011;52365;47.464;18.976;2023-07-31T00:42:42;2.00;;;1.60;;
65665;SDS011;52365;47.464;18.976;2023-07-31T00:43:03;2.58;;;1.80;;
65665;SDS011;52365;47.464;18.976;2023-07-31T00:43:25;2.65;;;2.03;;
65665;SDS011;52365;47.464;18.976;2023-07-31T00:43:46;2.33;;;1.70;;
65665;SDS011;52365;47.464;18.976;2023-07-31T00:44:07;2.60;;;1.60;;
65665;SDS011;52365;47.464;18.976;2023-07-31T00:44:28;2.97;;;1.80;;
65665;SDS011;52365;47.464;18.976;2023-07-31T00:44:49;3.60;;;1.80;;
65665;SDS011;52365;47.464;18.976;2023-07-31T00:45:10;2.83;;;1.80;;
65665;SDS011;52365;47.464;18.976;2023-07-31T00:45:31;2.47;;;1.77;;
65665;SDS011;52365;47.464;18.976;2023-07-31T00:45:48;2.80;;;1.80;;
65665;SDS011;52365;47.464;18.976;2023-07-31T00:46:09;4.10;;;2.00;;
65665;SDS011;52365;47.464;18.976;2023-07-31T00:46:30;4.00;;;2.00;;
65665;SDS011;52365;47.464;18.976;2023-07-31T00:46:51;2.83;;;1.90;;
65665;SDS011;52365;47.464;18.976;2023-07-31T00:47:12;2.80;;;1.90;;
65665;SDS011;52365;47.464;18.976;2023-07-31T00:47:33;2.33;;;1.73;;
65665;SDS011;52365;47.464;18.976;2023-07-31T00:47:54;2.35;;;1.70;;
65665;SDS011;52365;47.464;18.976;2023-07-31T00:48:16;2.78;;;1.90;;
65665;SDS011;52365;47.464;18.976;2023-07-31T00:48:37;2.58;;;1.85;;
65665;SDS011;52365;47.464;18.976;2023-07-31T00:48:59;2.55;;;1.90;;
65665;SDS011;52365;47.464;18.976;2023-07-31T00:49:21;2.90;;;1.90;;
65665;SDS011;52365;47.464;18.976;2023-07-31T00:49:43;2.80;;;1.77;;
65665;SDS011;52365;47.464;18.976;2023-07-31T00:50:04;2.45;;;1.70;;
65665;SDS011;52365;47.464;18.976;2023-07-31T00:50:27;2.80;;;1.80;;
65665;SDS011;52365;47.464;18.976;2023-07-31T00:50:48;2.87;;;2.00;;
65665;SDS011;52365;47.464;18.976;2023-07-31T00:51:10;3.17;;;1.92;;
65665;SDS011;52365;47.464;18.976;2023-07-31T00:51:31;3.05;;;1.90;;
65665;SDS011;52365;47.464;18.976;2023-07-31T00:51:52;3.62;;;1.90;;
65665;SDS011;52365;47.464;18.976;2023-07-31T00:52:14;3.10;;;2.00;;
65665;SDS011;52365;47.464;18.976;2023-07-31T00:52:35;2.90;;;2.03;;
65665;SDS011;52365;47.464;18.976;2023-07-31T00:52:57;3.17;;;2.10;;
65665;SDS011;52365;47.464;18.976;2023-07-31T00:53:18;2.67;;;2.15;;
65665;SDS011;52365;47.464;18.976;2023-07-31T00:53:40;3.12;;;2.08;;
65665;SDS011;52365;47.464;18.976;2023-07-31T00:54:01;2.95;;;1.90;;
65665;SDS011;52365;47.464;18.976;2023-07-31T00:54:23;2.80;;;2.00;;
65665;SDS011;52365;47.464;18.976;2023-07-31T00:54:44;2.58;;;1.98;;
65665;SDS011;52365;47.464;18.976;2023-07-31T00:55:05;3.30;;;1.90;;
65665;SDS011;52365;47.464;18.976;2023-07-31T00:55:27;2.70;;;2.00;;
65665;SDS011;52365;47.464;18.976;2023-07-31T00:55:48;3.70;;;2.28;;
65665;SDS011;52365;47.464;18.976;2023-07-31T00:56:09;3.45;;;2.28;;
65665;SDS011;52365;47.464;18.976;2023-07-31T00:56:32;3.33;;;2.20;;
65665;SDS011;52365;47.464;18.976;2023-07-31T00:56:53;3.37;;;2.25;;
65665;SDS011;52365;47.464;18.976;2023-07-31T00:57:15;2.97;;;2.30;;
65665;SDS011;52365;47.464;18.976;2023-07-31T00:57:36;2.87;;;2.12;;
65665;SDS011;52365;47.464;18.976;2023-07-31T00:57:59;3.37;;;2.30;;
65665;SDS011;52365;47.464;18.976;2023-07-31T00:58:20;3.25;;;2.17;;
65665;SDS011;52365;47.464;18.976;2023-07-31T00:58:41;3.10;;;2.08;;
65665;SDS011;52365;47.464;18.976;2023-07-31T00:59:02;3.00;;;2.30;;
65665;SDS011;52365;47.464;18.976;2023-07-31T00:59:23;3.30;;;2.33;;
65665;SDS011;52365;47.464;18.976;2023-07-31T00:59:44;2.95;;;2.03;;
65665;SDS011;52365;47.464;18.976;2023-07-31T01:00:07;3.05;;;2.22;;
65665;SDS011;52365;47.464;18.976;2023-07-31T01:00:29;3.30;;;2.20;;
65665;SDS011;52365;47.464;18.976;2023-07-31T01:00:50;3.37;;;2.25;;
65665;SDS011;52365;47.464;18.976;2023-07-31T01:01:11;4.30;;;2.33;;
65665;SDS011;52365;47.464;18.976;2023-07-31T01:01:32;3.53;;;2.20;;
65665;SDS011;52365;47.464;18.976;2023-07-31T01:01:53;3.92;;;2.20;;
65665;SDS011;52365;47.464;18.976;2023-07-31T01:02:14;2.97;;;2.35;;
65665;SDS011;52365;47.464;18.976;2023-07-31T01:02:35;2.92;;;2.22;;
65665;SDS011;52365;47.464;18.976;2023-07-31T01:02:56;3.25;;;2.40;;
65665;SDS011;52365;47.464;18.976;2023-07-31T01:03:18;3.90;;;2.30;;
65665;SDS011;52365;47.464;18.976;2023-07-31T01:03:39;3.42;;;2.03;;
65665;SDS011;52365;47.464;18.976;2023-07-31T01:04:00;2.97;;;2.10;;
65665;SDS011;52365;47.464;18.976;2023-07-31T01:04:21;2.85;;;2.15;;
65665;SDS011;52365;47.464;18.976;2023-07-31T01:04:43;3.58;;;2.12;;
65665;SDS011;52365;47.464;18.976;2023-07-31T01:05:06;4.07;;;2.17;;
65665;SDS011;52365;47.464;18.976;2023-07-31T01:05:39;3.08;;;2.37;;
65665;SDS011;52365;47.464;18.976;2023-07-31T01:06:17;3.15;;;2.20;;
65665;SDS011;52365;47.464;18.976;2023-07-31T01:09:03;3.70;;;2.05;;
65665;SDS011;52365;47.464;18.976;2023-07-31T01:10:45;3.17;;;2.30;;
65665;SDS011;52365;47.464;18.976;2023-07-31T01:11:16;3.28;;;2.20;;
65665;SDS011;52365;47.464;18.976;2023-07-31T01:11:45;3.00;;;2.20;;
65665;SDS011;52365;47.464;18.976;2023-07-31T01:12:13;3.77;;;2.10;;
65665;SDS011;52365;47.464;18.976;2023-07-31T01:12:36;2.97;;;2.10;;
65665;SDS011;52365;47.464;18.976;2023-07-31T01:12:59;3.37;;;2.00;;
65665;SDS011;52365;47.464;18.976;2023-07-31T01:13:20;3.22;;;2.10;;
65665;SDS011;52365;47.464;18.976;2023-07-31T01:13:42;2.62;;;1.95;;
65665;SDS011;52365;47.464;18.976;2023-07-31T01:14:04;3.28;;;2.00;;
65665;SDS011;52365;47.464;18.976;2023-07-31T01:14:26;2.78;;;2.00;;
65665;SDS011;52365;47.464;18.976;2023-07-31T01:15:05;3.17;;;2.08;;
65665;SDS011;52365;47.464;18.976;2023-07-31T01:15:31;2.65;;;1.92;;
65665;SDS011;52365;47.464;18.976;2023-07-31T01:15:52;2.67;;;1.85;;
65665;SDS011;52365;47.464;18.976;2023-07-31T01:16:13;3.80;;;1.90;;
65665;SDS011;52365;47.464;18.976;2023-07-31T01:16:34;3.50;;;1.90;;
65665;SDS011;52365;47.464;18.976;2023-07-31T01:16:55;2.67;;;1.98;;
65665;SDS011;52365;47.464;18.976;2023-07-31T01:17:16;2.80;;;2.00;;
65665;SDS011;52365;47.464;18.976;2023-07-31T01:17:37;2.90;;;1.95;;
65665;SDS011;52365;47.464;18.976;2023-07-31T01:17:54;3.62;;;1.98;;
65665;SDS011;52365;47.464;18.976;2023-07-31T01:18:15;2.42;;;1.80;;
65665;SDS011;52365;47.464;18.976;2023-07-31T01:18:36;2.22;;;1.70;;
65665;SDS011;52365;47.464;18.976;2023-07-31T01:18:57;2.60;;;1.70;;
65665;SDS011;52365;47.464;18.976;2023-07-31T01:19:19;2.40;;;1.77;;
65665;SDS011;52365;47.464;18.976;2023-07-31T01:19:42;4.00;;;2.03;;
65665;SDS011;52365;47.464;18.976;2023-07-31T01:20:14;3.25;;;2.03;;
65665;SDS011;52365;47.464;18.976;2023-07-31T01:20:39;3.03;;;1.70;;
65665;SDS011;52365;47.464;18.976;2023-07-31T01:24:21;2.83;;;1.73;;
65665;SDS011;52365;47.464;18.976;2023-07-31T01:24:59;2.55;;;1.83;;
65665;SDS011;52365;47.464;18.976;2023-07-31T01:26:19;3.25;;;2.03;;
65665;SDS011;52365;47.464;18.976;2023-07-31T01:26:44;3.65;;;1.87;;
65665;SDS011;52365;47.464;18.976;2023-07-31T01:27:15;2.80;;;1.80;;
65665;SDS011;52365;47.464;18.976;2023-07-31T01:28:17;3.10;;;2.00;;
65665;SDS011;52365;47.464;18.976;2023-07-31T01:29:17;2.83;;;1.95;;
65665;SDS011;52365;47.464;18.976;2023-07-31T01:29:49;2.92;;;2.08;;
65665;SDS011;52365;47.464;18.976;2023-07-31T01:30:16;3.00;;;2.00;;
65665;SDS011;52365;47.464;18.976;2023-07-31T01:30:43;3.10;;;2.00;;
65665;SDS011;52365;47.464;18.976;2023-07-31T01:31:07;2.83;;;1.87;;
65665;SDS011;52365;47.464;18.976;2023-07-31T01:31:27;4.40;;;2.17;;
65665;SDS011;52365;47.464;18.976;2023-07-31T01:31:50;2.65;;;2.00;;
65665;SDS011;52365;47.464;18.976;2023-07-31T01:32:13;2.92;;;1.92;;
65665;SDS011;52365;47.464;18.976;2023-07-31T01:32:39;2.85;;;1.95;;
65665;SDS011;52365;47.464;18.976;2023-07-31T01:33:02;3.15;;;1.98;;
65665;SDS011;52365;47.464;18.976;2023-07-31T01:33:27;4.25;;;1.95;;
65665;SDS011;52365;47.464;18.976;2023-07-31T01:33:49;4.05;;;1.90;;
65665;SDS011;52365;47.464;18.976;2023-07-31T01:34:12;3.37;;;1.90;;
65665;SDS011;52365;47.464;18.976;2023-07-31T01:34:35;3.12;;;2.05;;
65665;SDS011;52365;47.464;18.976;2023-07-31T01:34:57;3.55;;;2.40;;
65665;SDS011;52365;47.464;18.976;2023-07-31T01:35:20;3.20;;;2.28;;
65665;SDS011;52365;47.464;18.976;2023-07-31T01:35:43;2.78;;;2.20;;
65665;SDS011;52365;47.464;18.976;2023-07-31T01:36:05;3.05;;;2.05;;
65665;SDS011;52365;47.464;18.976;2023-07-31T01:36:27;2.35;;;1.83;;
65665;SDS011;52365;47.464;18.976;2023-07-31T01:36:50;4.78;;;2.28;;
65665;SDS011;52365;47.464;18.976;2023-07-31T01:37:11;3.40;;;2.10;;
65665;SDS011;52365;47.464;18.976;2023-07-31T01:37:32;2.70;;;1.80;;
65665;SDS011;52365;47.464;18.976;2023-07-31T01:37:53;2.75;;;1.90;;
65665;SDS011;52365;47.464;18.976;2023-07-31T01:38:14;3.37;;;2.00;;
65665;SDS011;52365;47.464;18.976;2023-07-31T01:38:35;3.20;;;1.90;;
65665;SDS011;52365;47.464;18.976;2023-07-31T01:39:00;3.55;;;2.05;;
65665;SDS011;52365;47.464;18.976;2023-07-31T01:39:21;3.37;;;2.00;;
65665;SDS011;52365;47.464;18.976;2023-07-31T01:39:42;3.62;;;2.00;;
65665;SDS011;52365;47.464;18.976;2023-07-31T01:40:04;3.10;;;1.90;;
65665;SDS011;52365;47.464;18.976;2023-07-31T01:40:21;2.67;;;1.87;;
65665;SDS011;52365;47.464;18.976;2023-07-31T01:40:42;2.90;;;2.00;;
65665;SDS011;52365;47.464;18.976;2023-07-31T01:41:03;3.30;;;1.90;;
65665;SDS011;52365;47.464;18.976;2023-07-31T01:41:24;3.08;;;2.00;;
65665;SDS011;52365;47.464;18.976;2023-07-31T01:41:40;2.67;;;2.00;;
65665;SDS011;52365;47.464;18.976;2023-07-31T01:42:01;2.95;;;2.00;;
65665;SDS011;52365;47.464;18.976;2023-07-31T01:42:22;2.70;;;1.90;;
65665;SDS011;52365;47.464;18.976;2023-07-31T01:42:43;4.10;;;2.05;;
65665;SDS011;52365;47.464;18.976;2023-07-31T01:43:04;3.97;;;1.98;;
65665;SDS011;52365;47.464;18.976;2023-07-31T01:43:25;3.00;;;1.95;;
65665;SDS011;52365;47.464;18.976;2023-07-31T01:43:46;2.42;;;1.92;;
65665;SDS011;52365;47.464;18.976;2023-07-31T01:44:07;2.70;;;1.90;;
65665;SDS011;52365;47.464;18.976;2023-07-31T01:44:28;4.43;;;2.10;;
65665;SDS011;52365;47.464;18.976;2023-07-31T01:44:49;4.35;;;2.22;;
65665;SDS011;52365;47.464;18.976;2023-07-31T01:45:10;3.67;;;1.90;;
65665;SDS011;52365;47.464;18.976;2023-07-31T01:45:32;3.83;;;1.80;;
65665;SDS011;52365;47.464;18.976;2023-07-31T01:45:53;2.33;;;1.70;;
65665;SDS011;52365;47.464;18.976;2023-07-31T01:46:14;2.20;;;1.70;;
65665;SDS011;52365;47.464;18.976;2023-07-31T01:46:30;2.15;;;1.70;;
65665;SDS011;52365;47.464;18.976;2023-07-31T01:46:51;3.15;;;1.75;;
65665;SDS011;52365;47.464;18.976;2023-07-31T01:47:12;3.37;;;1.70;;
65665;SDS011;52365;47.464;18.976;2023-07-31T01:47:33;2.80;;;1.60;;
65665;SDS011;52365;47.464;18.976;2023-07-31T01:47:54;2.55;;;1.58;;
65665;SDS011;52365;47.464;18.976;2023-07-31T01:48:15;2.58;;;1.70;;
65665;SDS011;52365;47.464;18.976;2023-07-31T01:48:36;2.30;;;1.77;;
65665;SDS011;52365;47.464;18.976;2023-07-31T01:48:57;2.10;;;1.70;;
65665;SDS011;52365;47.464;18.976;2023-07-31T01:49:18;2.20;;;1.60;;
65665;SDS011;52365;47.464;18.976;2023-07-31T01:49:39;2.58;;;1.77;;
65665;SDS011;52365;47.464;18.976;2023-07-31T01:50:00;3.87;;;1.90;;
65665;SDS011;52365;47.464;18.976;2023-07-31T01:50:21;3.53;;;1.83;;
65665;SDS011;52365;47.464;18.976;2023-07-31T01:50:42;2.47;;;1.70;;
65665;SDS011;52365;47.464;18.976;2023-07-31T01:51:03;2.87;;;1.60;;
65665;SDS011;52365;47.464;18.976;2023-07-31T01:51:24;3.15;;;1.50;;
65665;SDS011;52365;47.464;18.976;2023-07-31T01:51:45;3.80;;;1.73;;
65665;SDS011;52365;47.464;18.976;2023-07-31T01:52:06;3.00;;;1.73;;
65665;SDS011;52365;47.464;18.976;2023-07-31T01:52:27;2.62;;;1.62;;
65665;SDS011;52365;47.464;18.976;2023-07-31T01:52:48;3.45;;;1.75;;
65665;SDS011;52365;47.464;18.976;2023-07-31T01:53:09;3.00;;;1.60;;
65665;SDS011;52365;47.464;18.976;2023-07-31T01:53:32;3.70;;;1.70;;
65665;SDS011;52365;47.464;18.976;2023-07-31T01:53:54;2.50;;;1.52;;
65665;SDS011;52365;47.464;18.976;2023-07-31T01:54:15;3.45;;;1.70;;
65665;SDS011;52365;47.464;18.976;2023-07-31T01:54:36;3.92;;;1.62;;
65665;SDS011;52365;47.464;18.976;2023-07-31T01:54:57;3.47;;;1.60;;
65665;SDS011;52365;47.464;18.976;2023-07-31T01:55:18;2.55;;;1.80;;
65665;SDS011;52365;47.464;18.976;2023-07-31T01:55:39;2.50;;;1.50;;
65665;SDS011;52365;47.464;18.976;2023-07-31T01:56:00;2.30;;;1.50;;
65665;SDS011;52365;47.464;18.976;2023-07-31T01:56:21;2.92;;;1.70;;
65665;SDS011;52365;47.464;18.976;2023-07-31T01:56:42;2.78;;;1.67;;
65665;SDS011;52365;47.464;18.976;2023-07-31T01:57:03;2.65;;;1.60;;
65665;SDS011;52365;47.464;18.976;2023-07-31T01:57:24;1.95;;;1.45;;
65665;SDS011;52365;47.464;18.976;2023-07-31T01:57:45;1.92;;;1.30;;
65665;SDS011;52365;47.464;18.976;2023-07-31T01:58:06;2.72;;;1.40;;
65665;SDS011;52365;47.464;18.976;2023-07-31T01:58:27;3.80;;;1.70;;
65665;SDS011;52365;47.464;18.976;2023-07-31T01:58:48;3.60;;;1.80;;
65665;SDS011;52365;47.464;18.976;2023-07-31T01:59:09;2.15;;;1.52;;
65665;SDS011;52365;47.464;18.976;2023-07-31T01:59:30;2.70;;;1.50;;
65665;SDS011;52365;47.464;18.976;2023-07-31T01:59:51;2.37;;;1.48;;
65665;SDS011;52365;47.464;18.976;2023-07-31T02:00:13;2.53;;;1.35;;
65665;SDS011;52365;47.464;18.976;2023-07-31T02:00:35;2.50;;;1.45;;
65665;SDS011;52365;47.464;18.976;2023-07-31T02:00:56;2.08;;;1.35;;
65665;SDS011;52365;47.464;18.976;2023-07-31T02:01:17;2.00;;;1.40;;
65665;SDS011;52365;47.464;18.976;2023-07-31T02:01:37;2.70;;;1.50;;
65665;SDS011;52365;47.464;18.976;2023-07-31T02:01:58;1.80;;;1.40;;
65665;SDS011;52365;47.464;18.976;2023-07-31T02:02:19;2.00;;;1.30;;
65665;SDS011;52365;47.464;18.976;2023-07-31T02:02:41;3.10;;;1.60;;
65665;SDS011;52365;47.464;18.976;2023-07-31T02:03:02;2.65;;;1.40;;
65665;SDS011;52365;47.464;18.976;2023-07-31T02:03:23;2.45;;;1.30;;
65665;SDS011;52365;47.464;18.976;2023-07-31T02:03:44;2.97;;;1.50;;
65665;SDS011;52365;47.464;18.976;2023-07-31T02:04:05;2.20;;;1.40;;
65665;SDS011;52365;47.464;18.976;2023-07-31T02:04:26;2.00;;;1.15;;
65665;SDS011;52365;47.464;18.976;2023-07-31T02:04:47;2.03;;;1.27;;
65665;SDS011;52365;47.464;18.976;2023-07-31T02:05:08;2.78;;;1.40;;
65665;SDS011;52365;47.464;18.976;2023-07-31T02:05:29;2.60;;;1.35;;
65665;SDS011;52365;47.464;18.976;2023-07-31T02:05:50;2.40;;;1.30;;
65665;SDS011;52365;47.464;18.976;2023-07-31T02:06:11;2.30;;;1.37;;
65665;SDS011;52365;47.464;18.976;2023-07-31T02:06:32;2.45;;;1.50;;
65665;SDS011;52365;47.464;18.976;2023-07-31T02:06:53;2.40;;;1.35;;
65665;SDS011;52365;47.464;18.976;2023-07-31T02:07:14;2.50;;;1.33;;
65665;SDS011;52365;47.464;18.976;2023-07-31T02:07:35;2.17;;;1.30;;
65665;SDS011;52365;47.464;18.976;2023-07-31T02:07:56;3.03;;;1.33;;
65665;SDS011;52365;47.464;18.976;2023-07-31T02:08:17;2.37;;;1.37;;
65665;SDS011;52365;47.464;18.976;2023-07-31T02:08:38;2.55;;;1.35;;
65665;SDS011;52365;47.464;18.976;2023-07-31T02:08:59;3.10;;;1.30;;
65665;SDS011;52365;47.464;18.976;2023-07-31T02:09:20;2.28;;;1.35;;
65665;SDS011;52365;47.464;18.976;2023-07-31T02:09:41;2.37;;;1.40;;
65665;SDS011;52365;47.464;18.976;2023-07-31T02:10:02;2.50;;;1.35;;
65665;SDS011;52365;47.464;18.976;2023-07-31T02:10:23;2.28;;;1.33;;
65665;SDS011;52365;47.464;18.976;2023-07-31T02:10:44;2.55;;;1.50;;
65665;SDS011;52365;47.464;18.976;2023-07-31T02:11:05;2.60;;;1.40;;
65665;SDS011;52365;47.464;18.976;2023-07-31T02:11:26;2.55;;;1.45;;
65665;SDS011;52365;47.464;18.976;2023-07-31T02:11:47;1.87;;;1.37;;
65665;SDS011;52365;47.464;18.976;2023-07-31T02:12:08;4.32;;;1.40;;
65665;SDS011;52365;47.464;18.976;2023-07-31T02:12:29;4.10;;;1.50;;
65665;SDS011;52365;47.464;18.976;2023-07-31T02:12:54;2.60;;;1.55;;
65665;SDS011;52365;47.464;18.976;2023-07-31T02:13:15;2.33;;;1.40;;
65665;SDS011;52365;47.464;18.976;2023-07-31T02:13:36;3.33;;;1.35;;
65665;SDS011;52365;47.464;18.976;2023-07-31T02:13:52;2.17;;;1.30;;
65665;SDS011;52365;47.464;18.976;2023-07-31T02:14:13;1.80;;;1.30;;
65665;SDS011;52365;47.464;18.976;2023-07-31T02:14:34;1.77;;;1.23;;
65665;SDS011;52365;47.464;18.976;2023-07-31T02:14:55;3.20;;;1.50;;
65665;SDS011;52365;47.464;18.976;2023-07-31T02:15:16;3.10;;;1.45;;
65665;SDS011;52365;47.464;18.976;2023-07-31T02:15:37;3.05;;;1.37;;
65665;SDS011;52365;47.464;18.976;2023-07-31T02:15:53;2.87;;;1.40;;
65665;SDS011;52365;47.464;18.976;2023-07-31T02:16:14;2.67;;;1.50;;